Time;durP1;ratioP1;P1;durP2;ratioP2;P2;SDS_P1;SDS_P2;PMS_P1;PMS_P2;Temp;Humidity;BMP_temperature;BMP_pressure;BME280_temperature;BME280_humidity;BME280_pressure;Samples;Min_cycle;Max_cycle;Signal;HPM_P1;HPM_P2
2021/12/11 00:00:47;;;;;;;;;;;;;;;;;;2107035;28;19932;-43
2021/12/11 00:01:49;;;;;;;;;;;;;;;;;;2101223;28;19924;-43
2021/12/11 00:02:50;;;;;;;;;;;;;;;;;;2098278;28;19929;-43
2021/12/11 00:03:51;;;;;;;;;;;;;;;;;;2098542;28;19925;-43
2021/12/11 00:04:55;;;;;;;;;;;;;;;;;;2098470;28;19975;-43
2021/12/11 00:05:56;;;;;;;;;;;;;;;;;;2098464;28;20015;-43
2021/12/11 00:06:57;;;;;;;;;;;;;;;;;;2098515;28;19924;-43
2021/12/11 00:07:58;;;;;;;;;;;;;;;;;;2099555;28;19969;-43
2021/12/11 00:08:59;;;;;;;;;;;;;;;;;;2098504;28;19924;-43
2021/12/11 00:09:59;;;;;;;;;;;;;;;;;;2098516;28;19925;-44
2021/12/11 00:11:01;;;;;;;;;;;;;;;;;;2098335;28;19957;-43
2021/12/11 00:12:01;;;;;;;;;;;;;;;;;;2098451;28;20014;-43
2021/12/11 00:13:02;;;;;;;;;;;;;;;;;;2097968;28;19929;-43
2021/12/11 00:14:03;;;;;;;;;;;;;;;;;;2099320;28;19939;-44
2021/12/11 00:15:04;;;;;;;;;;;;;;;;;;2106899;28;20242;-43
2021/12/11 00:16:04;;;;;;;;;;;;;;;;;;2105470;28;19932;-43
2021/12/11 00:17:05;;;;;;;;;;;;;;;;;;2098633;28;19925;-43
2021/12/11 00:18:06;;;;;;;;;;;;;;;;;;2098458;28;19924;-43
2021/12/11 00:19:07;;;;;;;;;;;;;;;;;;2097964;28;19924;-43
2021/12/11 00:20:08;;;;;;;;;;;;;;;;;;2100815;28;19998;-43
2021/12/11 00:21:09;;;;;;;;;;;;;;;;;;2106795;28;19928;-43
2021/12/11 00:22:09;;;;;;;;;;;;;;;;;;2103686;28;19931;-43
2021/12/11 00:23:10;;;;;;;;;;;;;;;;;;2098798;28;19931;-43
2021/12/11 00:24:11;;;;;;;;;;;;;;;;;;2098571;28;19970;-43
2021/12/11 00:25:12;;;;;;;;;;;;;;;;;;2096115;28;19925;-43
2021/12/11 00:26:13;;;;;;;;;;;;;;;;;;2099248;28;19926;-43
2021/12/11 00:27:13;;;;;;;;;;;;;;;;;;2098350;28;20415;-43
2021/12/11 00:28:14;;;;;;;;;;;;;;;;;;2097472;28;20181;-43
2021/12/11 00:29:15;;;;;;;;;;;;;;;;;;2102882;28;19925;-43
2021/12/11 00:30:16;;;;;;;;;;;;;;;;;;2106752;28;20373;-43
2021/12/11 00:31:17;;;;;;;;;;;;;;;;;;2101709;28;19934;-43
2021/12/11 00:32:19;;;;;;;;;;;;;;;;;;2099198;28;20543;-45
2021/12/11 00:33:20;;;;;;;;;;;;;;;;;;2098260;28;20408;-43
2021/12/11 00:34:21;;;;;;;;;;;;;;;;;;2097254;28;19929;-43
2021/12/11 00:35:22;;;;;;;;;;;;;;;;;;2104664;28;19942;-43
2021/12/11 00:36:23;;;;;;;;;;;;;;;;;;2106793;28;19924;-43
2021/12/11 00:37:24;;;;;;;;;;;;;;;;;;2100723;28;20396;-43
2021/12/11 00:38:25;;;;;;;;;;;;;;;;;;2098231;28;20357;-43
2021/12/11 00:39:26;;;;;;;;;;;;;;;;;;2098490;28;19959;-43
2021/12/11 00:40:27;;;;;;;;;;;;;;;;;;2099207;28;19931;-43
2021/12/11 00:41:31;;;;;;;;;;;;;;;;;;2098148;28;19950;-43
2021/12/11 00:42:34;;;;;;;;;;;;;;;;;;2098300;28;19963;-43
2021/12/11 00:43:35;;;;;;;;;;;;;;;;;;2099154;28;20459;-43
2021/12/11 00:44:36;;;;;;;;;;;;;;;;;;2098352;28;20306;-43
2021/12/11 00:45:37;;;;;;;;;;;;;;;;;;2106540;28;19924;-43
2021/12/11 00:46:38;;;;;;;;;;;;;;;;;;2098328;28;19924;-43
2021/12/11 00:47:38;;;;;;;;;;;;;;;;;;2106568;28;19928;-44
2021/12/11 00:48:39;;;;;;;;;;;;;;;;;;2105844;28;19950;-43
2021/12/11 00:49:40;;;;;;;;;;;;;;;;;;2098586;28;19964;-43
2021/12/11 00:50:41;;;;;;;;;;;;;;;;;;2098284;28;19928;-43
2021/12/11 00:51:42;;;;;;;;;;;;;;;;;;2097757;28;19951;-43
2021/12/11 00:52:43;;;;;;;;;;;;;;;;;;2099553;28;19970;-43
2021/12/11 00:53:44;;;;;;;;;;;;;;;;;;2098274;28;20308;-43
2021/12/11 00:54:44;;;;;;;;;;;;;;;;;;2097632;28;19924;-43
2021/12/11 00:55:45;;;;;;;;;;;;;;;;;;2100721;28;19924;-43
2021/12/11 00:56:47;;;;;;;;;;;;;;;;;;2106607;28;19924;-43
2021/12/11 00:57:47;;;;;;;;;;;;;;;;;;2103704;28;19923;-43
2021/12/11 00:58:48;;;;;;;;;;;;;;;;;;2101343;28;19925;-43
2021/12/11 00:59:49;;;;;;;;;;;;;;;;;;2106715;28;19924;-43
2021/12/11 01:00:50;;;;;;;;;;;;;;;;;;2102657;28;19924;-43
2021/12/11 01:01:50;;;;;;;;;;;;;;;;;;2102292;28;19939;-43
2021/12/11 01:02:52;;;;;;;;;;;;;;;;;;2106364;28;19939;-43
2021/12/11 01:03:53;;;;;;;;;;;;;;;;;;2101812;28;19931;-43
2021/12/11 01:04:53;;;;;;;;;;;;;;;;;;2102052;28;19924;-43
2021/12/11 01:05:54;;;;;;;;;;;;;;;;;;2106466;28;19928;-43
2021/12/11 01:06:55;;;;;;;;;;;;;;;;;;2101326;28;19990;-43
2021/12/11 01:07:56;;;;;;;;;;;;;;;;;;2098751;28;19924;-43
2021/12/11 01:08:57;;;;;;;;;;;;;;;;;;2098247;28;20369;-43
2021/12/11 01:09:59;;;;;;;;;;;;;;;;;;2098158;28;19981;-43
2021/12/11 01:11:00;;;;;;;;;;;;;;;;;;2097887;28;20397;-43
2021/12/11 01:12:04;;;;;;;;;;;;;;;;;;2098094;28;19970;-43
2021/12/11 01:13:05;;;;;;;;;;;;;;;;;;2099162;28;20015;-43
2021/12/11 01:14:11;;;;;;;;;;;;;;;;;;2097892;28;20019;-43
2021/12/11 01:15:13;;;;;;;;;;;;;;;;;;2098277;28;19952;-43
2021/12/11 01:16:15;;;;;;;;;;;;;;;;;;2097495;28;20026;-43
2021/12/11 01:17:18;;;;;;;;;;;;;;;;;;2106493;28;19924;-43
2021/12/11 01:18:23;;;;;;;;;;;;;;;;;;2104529;28;20002;-43
2021/12/11 01:19:24;;;;;;;;;;;;;;;;;;2098444;28;20019;-43
2021/12/11 01:20:25;;;;;;;;;;;;;;;;;;2098186;28;19979;-43
2021/12/11 01:21:33;;;;;;;;;;;;;;;;;;2097517;28;20058;-43
2021/12/11 01:22:35;;;;;;;;;;;;;;;;;;2097900;28;20019;-43
2021/12/11 01:23:55;;;;;;;;;;;;;;;;;;2098056;28;20023;-43
2021/12/11 01:24:56;;;;;;;;;;;;;;;;;;2098003;28;19931;-43
2021/12/11 01:25:57;;;;;;;;;;;;;;;;;;2097900;28;20015;-43
2021/12/11 01:26:58;;;;;;;;;;;;;;;;;;2098065;28;19973;-43
2021/12/11 01:27:59;;;;;;;;;;;;;;;;;;2097935;28;19933;-43
2021/12/11 01:29:00;;;;;;;;;;;;;;;;;;2097886;28;19947;-43
2021/12/11 01:30:01;;;;;;;;;;;;;;;;;;2097984;28;19925;-43
2021/12/11 01:31:02;;;;;;;;;;;;;;;;;;2098011;28;19924;-43
2021/12/11 01:32:02;;;;;;;;;;;;;;;;;;2097871;28;19924;-43
2021/12/11 01:33:03;;;;;;;;;;;;;;;;;;2098106;28;20369;-43
2021/12/11 01:34:04;;;;;;;;;;;;;;;;;;2097759;28;19934;-43
2021/12/11 01:35:05;;;;;;;;;;;;;;;;;;2106292;28;19924;-43
2021/12/11 01:36:06;;;;;;;;;;;;;;;;;;2105627;28;19924;-43
2021/12/11 01:37:06;;;;;;;;;;;;;;;;;;2098612;28;19933;-43
2021/12/11 01:38:07;;;;;;;;;;;;;;;;;;2106379;28;19936;-46
2021/12/11 01:39:08;;;;;;;;;;;;;;;;;;2105223;28;19947;-43
2021/12/11 01:40:09;;;;;;;;;;;;;;;;;;2103014;28;19928;-43
2021/12/11 01:41:10;;;;;;;;;;;;;;;;;;2106422;28;19978;-43
2021/12/11 01:42:11;;;;;;;;;;;;;;;;;;2101875;28;20361;-43
2021/12/11 01:43:11;;;;;;;;;;;;;;;;;;2101972;28;20334;-43
2021/12/11 01:44:12;;;;;;;;;;;;;;;;;;2106259;28;20384;-43
2021/12/11 01:45:13;;;;;;;;;;;;;;;;;;2099739;28;19976;-43
2021/12/11 01:46:14;;;;;;;;;;;;;;;;;;2098701;28;19990;-43
2021/12/11 01:47:15;;;;;;;;;;;;;;;;;;2097977;28;19931;-43
2021/12/11 01:48:16;;;;;;;;;;;;;;;;;;2096951;28;20266;-43
2021/12/11 01:49:16;;;;;;;;;;;;;;;;;;2098688;28;19947;-43
2021/12/11 01:50:17;;;;;;;;;;;;;;;;;;2097834;28;20295;-43
2021/12/11 01:51:18;;;;;;;;;;;;;;;;;;2097901;28;19932;-43
2021/12/11 01:52:19;;;;;;;;;;;;;;;;;;2104674;28;20369;-43
2021/12/11 01:53:20;;;;;;;;;;;;;;;;;;2106188;28;19924;-43
2021/12/11 01:54:21;;;;;;;;;;;;;;;;;;2098973;28;19928;-43
2021/12/11 01:55:21;;;;;;;;;;;;;;;;;;2105365;28;20335;-43
2021/12/11 01:56:22;;;;;;;;;;;;;;;;;;2106341;28;19931;-43
2021/12/11 01:57:24;;;;;;;;;;;;;;;;;;2099338;28;20277;-43
2021/12/11 01:58:24;;;;;;;;;;;;;;;;;;2097803;28;20448;-43
2021/12/11 01:59:25;;;;;;;;;;;;;;;;;;2097844;28;19924;-43
2021/12/11 02:00:26;;;;;;;;;;;;;;;;;;2098955;28;19948;-43
2021/12/11 02:01:27;;;;;;;;;;;;;;;;;;2097846;28;19986;-43
2021/12/11 02:02:28;;;;;;;;;;;;;;;;;;2097849;28;19924;-43
2021/12/11 02:03:29;;;;;;;;;;;;;;;;;;2097526;28;19932;-43
2021/12/11 02:04:29;;;;;;;;;;;;;;;;;;2097814;28;19925;-44
2021/12/11 02:05:30;;;;;;;;;;;;;;;;;;2097372;28;19925;-43
2021/12/11 02:06:31;;;;;;;;;;;;;;;;;;2098018;28;19994;-43
2021/12/11 02:07:32;;;;;;;;;;;;;;;;;;2097718;28;19924;-43
2021/12/11 02:08:33;;;;;;;;;;;;;;;;;;2097368;28;19974;-43
2021/12/11 02:09:34;;;;;;;;;;;;;;;;;;2098106;28;20407;-44
2021/12/11 02:10:35;;;;;;;;;;;;;;;;;;2097762;28;19939;-43
2021/12/11 02:11:36;;;;;;;;;;;;;;;;;;2097181;28;20341;-43
2021/12/11 02:12:38;;;;;;;;;;;;;;;;;;2098264;28;19951;-43
2021/12/11 02:13:42;;;;;;;;;;;;;;;;;;2097768;28;19967;-43
2021/12/11 02:14:46;;;;;;;;;;;;;;;;;;2096610;28;19967;-43
2021/12/11 02:15:50;;;;;;;;;;;;;;;;;;2098591;28;19977;-43
2021/12/11 02:16:52;;;;;;;;;;;;;;;;;;2099129;28;19924;-43
2021/12/11 02:17:53;;;;;;;;;;;;;;;;;;2098152;28;20339;-43
2021/12/11 02:18:53;;;;;;;;;;;;;;;;;;2104972;28;19924;-44
2021/12/11 02:19:54;;;;;;;;;;;;;;;;;;2107603;28;20377;-43
2021/12/11 02:20:55;;;;;;;;;;;;;;;;;;2102481;28;19924;-44
2021/12/11 02:21:57;;;;;;;;;;;;;;;;;;2099049;28;19924;-44
2021/12/11 02:22:57;;;;;;;;;;;;;;;;;;2099410;28;20022;-43
2021/12/11 02:23:58;;;;;;;;;;;;;;;;;;2099069;28;20300;-43
2021/12/11 02:24:59;;;;;;;;;;;;;;;;;;2098025;28;19940;-43
2021/12/11 02:26:00;;;;;;;;;;;;;;;;;;2099259;28;19925;-43
2021/12/11 02:27:01;;;;;;;;;;;;;;;;;;2100145;28;20434;-44
2021/12/11 02:28:02;;;;;;;;;;;;;;;;;;2099060;28;19978;-43
2021/12/11 02:29:02;;;;;;;;;;;;;;;;;;2099131;28;19924;-43
2021/12/11 02:30:03;;;;;;;;;;;;;;;;;;2100155;28;19924;-43
2021/12/11 02:31:05;;;;;;;;;;;;;;;;;;2099169;28;19982;-43
2021/12/11 02:32:06;;;;;;;;;;;;;;;;;;2099196;28;19931;-43
2021/12/11 02:33:07;;;;;;;;;;;;;;;;;;2098834;28;19924;-43
2021/12/11 02:34:09;;;;;;;;;;;;;;;;;;2099121;28;20070;-43
2021/12/11 02:35:10;;;;;;;;;;;;;;;;;;2098600;28;19935;-43
2021/12/11 02:36:11;;;;;;;;;;;;;;;;;;2099539;28;20176;-43
2021/12/11 02:37:12;;;;;;;;;;;;;;;;;;2099195;28;19982;-43
2021/12/11 02:38:13;;;;;;;;;;;;;;;;;;2098545;28;20385;-43
2021/12/11 02:39:14;;;;;;;;;;;;;;;;;;2099417;28;19928;-43
2021/12/11 02:40:15;;;;;;;;;;;;;;;;;;2099035;28;19931;-43
2021/12/11 02:41:15;;;;;;;;;;;;;;;;;;2098417;28;19950;-43
2021/12/11 02:42:16;;;;;;;;;;;;;;;;;;2104895;28;19960;-43
2021/12/11 02:43:17;;;;;;;;;;;;;;;;;;2107489;28;19928;-43
2021/12/11 02:44:18;;;;;;;;;;;;;;;;;;2101998;28;19932;-43
2021/12/11 02:45:19;;;;;;;;;;;;;;;;;;2098325;28;19977;-43
2021/12/11 02:46:20;;;;;;;;;;;;;;;;;;2099166;28;19932;-43
2021/12/11 02:47:20;;;;;;;;;;;;;;;;;;2099339;28;20015;-43
2021/12/11 02:48:21;;;;;;;;;;;;;;;;;;2099807;28;19974;-57
2021/12/11 02:49:22;;;;;;;;;;;;;;;;;;2099030;28;19924;-57
2021/12/11 02:50:23;;;;;;;;;;;;;;;;;;2097932;28;19925;-57
2021/12/11 02:51:24;;;;;;;;;;;;;;;;;;2105989;28;20344;-57
2021/12/11 02:52:25;;;;;;;;;;;;;;;;;;2107437;28;20326;-57
2021/12/11 02:53:25;;;;;;;;;;;;;;;;;;2099893;28;19924;-57
2021/12/11 02:54:26;;;;;;;;;;;;;;;;;;2106589;28;19924;-57
2021/12/11 02:55:27;;;;;;;;;;;;;;;;;;2107348;28;19934;-57
2021/12/11 02:56:28;;;;;;;;;;;;;;;;;;2100629;28;19925;-58
2021/12/11 02:57:29;;;;;;;;;;;;;;;;;;2098971;28;19928;-58
2021/12/11 02:58:29;;;;;;;;;;;;;;;;;;2098959;28;20316;-58
2021/12/11 02:59:32;;;;;;;;;;;;;;;;;;2099328;28;20392;-58
2021/12/11 03:00:33;;;;;;;;;;;;;;;;;;2107149;28;20028;-58
2021/12/11 03:01:34;;;;;;;;;;;;;;;;;;2107343;28;20407;-58
2021/12/11 03:02:36;;;;;;;;;;;;;;;;;;2097808;28;19924;-59
2021/12/11 03:03:39;;;;;;;;;;;;;;;;;;2099115;28;19924;-58
2021/12/11 03:04:46;;;;;;;;;;;;;;;;;;2098360;28;19924;-58
2021/12/11 03:05:54;;;;;;;;;;;;;;;;;;2099040;28;20019;-58
2021/12/11 03:06:55;;;;;;;;;;;;;;;;;;2098980;28;20035;-59
2021/12/11 03:08:00;;;;;;;;;;;;;;;;;;2098089;28;20069;-59
2021/12/11 03:09:01;;;;;;;;;;;;;;;;;;2104337;28;20015;-59
2021/12/11 03:10:02;;;;;;;;;;;;;;;;;;2107440;28;20281;-58
2021/12/11 03:11:03;;;;;;;;;;;;;;;;;;2101244;28;19978;-58
2021/12/11 03:12:04;;;;;;;;;;;;;;;;;;2103861;28;19924;-59
2021/12/11 03:13:04;;;;;;;;;;;;;;;;;;2107322;28;19935;-59
2021/12/11 03:14:07;;;;;;;;;;;;;;;;;;2101329;28;19932;-58
2021/12/11 03:15:08;;;;;;;;;;;;;;;;;;2098858;28;19924;-59
2021/12/11 03:16:09;;;;;;;;;;;;;;;;;;2098918;28;19935;-58
2021/12/11 03:17:10;;;;;;;;;;;;;;;;;;2098673;28;20011;-59
2021/12/11 03:18:11;;;;;;;;;;;;;;;;;;2106540;28;19924;-58
2021/12/11 03:19:12;;;;;;;;;;;;;;;;;;2107316;28;20361;-58
2021/12/11 03:20:13;;;;;;;;;;;;;;;;;;2099172;28;19924;-58
2021/12/11 03:21:13;;;;;;;;;;;;;;;;;;2098827;28;19931;-58
2021/12/11 03:22:14;;;;;;;;;;;;;;;;;;2098972;28;19928;-58
2021/12/11 03:23:15;;;;;;;;;;;;;;;;;;2098537;28;20357;-58
2021/12/11 03:24:16;;;;;;;;;;;;;;;;;;2098951;28;19925;-58
2021/12/11 03:25:17;;;;;;;;;;;;;;;;;;2098836;28;19979;-58
2021/12/11 03:26:17;;;;;;;;;;;;;;;;;;2099757;28;19928;-58
2021/12/11 03:27:18;;;;;;;;;;;;;;;;;;2098376;28;20070;-58
2021/12/11 03:28:19;;;;;;;;;;;;;;;;;;2098286;28;19925;-58
2021/12/11 03:29:20;;;;;;;;;;;;;;;;;;2102172;28;20005;-59
2021/12/11 03:30:22;;;;;;;;;;;;;;;;;;2107325;28;19932;-59
2021/12/11 03:31:22;;;;;;;;;;;;;;;;;;2103014;28;20019;-59
2021/12/11 03:32:23;;;;;;;;;;;;;;;;;;2099513;28;20277;-59
2021/12/11 03:33:24;;;;;;;;;;;;;;;;;;2098702;28;19951;-58
2021/12/11 03:34:25;;;;;;;;;;;;;;;;;;2097698;28;19924;-58
2021/12/11 03:35:26;;;;;;;;;;;;;;;;;;2099672;28;19932;-59
2021/12/11 03:36:26;;;;;;;;;;;;;;;;;;2098729;28;20270;-59
2021/12/11 03:37:27;;;;;;;;;;;;;;;;;;2097761;28;19924;-58
2021/12/11 03:38:28;;;;;;;;;;;;;;;;;;2099525;28;20407;-58
2021/12/11 03:39:29;;;;;;;;;;;;;;;;;;2098749;28;20332;-59
2021/12/11 03:40:30;;;;;;;;;;;;;;;;;;2097946;28;19939;-59
2021/12/11 03:41:31;;;;;;;;;;;;;;;;;;2099241;28;20011;-58
2021/12/11 03:42:32;;;;;;;;;;;;;;;;;;2098727;28;19925;-59
2021/12/11 03:43:33;;;;;;;;;;;;;;;;;;2097662;28;19931;-59
2021/12/11 03:44:34;;;;;;;;;;;;;;;;;;2103373;28;19924;-59
2021/12/11 03:45:35;;;;;;;;;;;;;;;;;;2107033;28;19928;-58
2021/12/11 03:46:35;;;;;;;;;;;;;;;;;;2099296;28;20319;-59
2021/12/11 03:47:36;;;;;;;;;;;;;;;;;;2106427;28;19931;-58
2021/12/11 03:48:37;;;;;;;;;;;;;;;;;;2107145;28;20338;-59
2021/12/11 03:49:38;;;;;;;;;;;;;;;;;;2099790;28;20309;-59
2021/12/11 03:50:39;;;;;;;;;;;;;;;;;;2098637;28;19982;-59
2021/12/11 03:51:40;;;;;;;;;;;;;;;;;;2098674;28;20063;-59
2021/12/11 03:52:40;;;;;;;;;;;;;;;;;;2098472;28;19928;-58
2021/12/11 03:53:41;;;;;;;;;;;;;;;;;;2098540;28;20381;-59
2021/12/11 03:54:42;;;;;;;;;;;;;;;;;;2098698;28;20385;-59
2021/12/11 03:55:43;;;;;;;;;;;;;;;;;;2098669;28;20391;-59
2021/12/11 03:56:44;;;;;;;;;;;;;;;;;;2098616;28;19931;-59
2021/12/11 03:57:45;;;;;;;;;;;;;;;;;;2098003;28;19970;-58
2021/12/11 03:58:49;;;;;;;;;;;;;;;;;;2098843;28;20008;-58
2021/12/11 03:59:51;;;;;;;;;;;;;;;;;;2098757;28;20057;-58
2021/12/11 04:00:52;;;;;;;;;;;;;;;;;;2097893;28;20338;-59
2021/12/11 04:01:54;;;;;;;;;;;;;;;;;;2101323;28;19931;-59
2021/12/11 04:03:02;;;;;;;;;;;;;;;;;;2106807;28;19953;-59
2021/12/11 04:04:03;;;;;;;;;;;;;;;;;;2102390;28;20270;-58
2021/12/11 04:05:04;;;;;;;;;;;;;;;;;;2099457;28;20078;-59
2021/12/11 04:06:05;;;;;;;;;;;;;;;;;;2098744;28;20359;-58
2021/12/11 04:07:05;;;;;;;;;;;;;;;;;;2097279;28;19948;-59
2021/12/11 04:08:06;;;;;;;;;;;;;;;;;;2103853;28;19924;-59
2021/12/11 04:09:07;;;;;;;;;;;;;;;;;;2106926;28;19924;-58
2021/12/11 04:10:08;;;;;;;;;;;;;;;;;;2102139;28;19924;-58
2021/12/11 04:11:09;;;;;;;;;;;;;;;;;;2099367;28;19928;-58
2021/12/11 04:12:09;;;;;;;;;;;;;;;;;;2098393;28;19948;-59
2021/12/11 04:13:10;;;;;;;;;;;;;;;;;;2098444;28;19939;-59
2021/12/11 04:14:11;;;;;;;;;;;;;;;;;;2098269;28;19963;-59
2021/12/11 04:15:12;;;;;;;;;;;;;;;;;;2098605;28;19974;-59
2021/12/11 04:16:13;;;;;;;;;;;;;;;;;;2098609;28;20285;-59
2021/12/11 04:17:14;;;;;;;;;;;;;;;;;;2098212;28;20416;-59
2021/12/11 04:18:15;;;;;;;;;;;;;;;;;;2098447;28;19928;-59
2021/12/11 04:19:16;;;;;;;;;;;;;;;;;;2097274;28;20393;-58
2021/12/11 04:20:16;;;;;;;;;;;;;;;;;;2106706;28;19970;-58
2021/12/11 04:21:17;;;;;;;;;;;;;;;;;;2106696;28;19924;-58
2021/12/11 04:22:18;;;;;;;;;;;;;;;;;;2099181;28;19928;-58
2021/12/11 04:23:19;;;;;;;;;;;;;;;;;;2098524;28;19929;-58
2021/12/11 04:24:20;;;;;;;;;;;;;;;;;;2098443;28;20317;-58
2021/12/11 04:25:20;;;;;;;;;;;;;;;;;;2098357;28;20027;-58
2021/12/11 04:26:21;;;;;;;;;;;;;;;;;;2098570;28;19997;-58
2021/12/11 04:27:24;;;;;;;;;;;;;;;;;;2097989;28;20389;-59
2021/12/11 04:28:25;;;;;;;;;;;;;;;;;;2099474;28;19975;-59
2021/12/11 04:29:26;;;;;;;;;;;;;;;;;;2106821;28;20369;-59
2021/12/11 04:30:26;;;;;;;;;;;;;;;;;;2105266;28;19924;-59
2021/12/11 04:31:27;;;;;;;;;;;;;;;;;;2098682;28;19967;-59
2021/12/11 04:32:31;;;;;;;;;;;;;;;;;;2098260;28;19925;-58
2021/12/11 04:33:33;;;;;;;;;;;;;;;;;;2097588;28;19924;-59
2021/12/11 04:34:34;;;;;;;;;;;;;;;;;;2098698;28;20326;-59
2021/12/11 04:35:34;;;;;;;;;;;;;;;;;;2098449;28;19975;-59
2021/12/11 04:36:35;;;;;;;;;;;;;;;;;;2097677;28;20356;-59
2021/12/11 04:37:36;;;;;;;;;;;;;;;;;;2102979;28;19931;-59
2021/12/11 04:38:37;;;;;;;;;;;;;;;;;;2106453;28;20296;-58
2021/12/11 04:39:39;;;;;;;;;;;;;;;;;;2101853;28;19924;-59
2021/12/11 04:40:40;;;;;;;;;;;;;;;;;;2096963;28;20346;-59
2021/12/11 04:41:48;;;;;;;;;;;;;;;;;;2098302;28;20427;-59
2021/12/11 04:42:54;;;;;;;;;;;;;;;;;;2098880;28;19930;-59
2021/12/11 04:43:55;;;;;;;;;;;;;;;;;;2097300;28;20015;-59
2021/12/11 04:44:56;;;;;;;;;;;;;;;;;;2101207;28;19924;-59
2021/12/11 04:45:59;;;;;;;;;;;;;;;;;;2100036;28;19924;-59
2021/12/11 04:47:00;;;;;;;;;;;;;;;;;;2089947;28;20340;-59
2021/12/11 04:48:09;;;;;;;;;;;;;;;;;;2090049;28;19924;-59
2021/12/11 04:49:15;;;;;;;;;;;;;;;;;;2098719;28;19932;-59
2021/12/11 04:50:21;;;;;;;;;;;;;;;;;;2098341;28;20062;-59
2021/12/11 04:51:26;;;;;;;;;;;;;;;;;;2097633;28;20350;-59
2021/12/11 04:52:33;;;;;;;;;;;;;;;;;;2098428;28;20019;-59
2021/12/11 04:53:46;;;;;;;;;;;;;;;;;;2098154;28;20019;-59
2021/12/11 04:54:59;;;;;;;;;;;;;;;;;;2098228;28;19964;-60
2021/12/11 04:56:21;;;;;;;;;;;;;;;;;;2098227;28;20486;-59
2021/12/11 04:57:50;;;;;;;;;;;;;;;;;;2097273;28;19938;-59
2021/12/11 04:58:59;;;;;;;;;;;;;;;;;;2097999;28;19924;-59
2021/12/11 05:00:08;;;;;;;;;;;;;;;;;;2097713;28;19931;-59
2021/12/11 05:01:27;;;;;;;;;;;;;;;;;;2098657;28;20019;-59
2021/12/11 05:02:54;;;;;;;;;;;;;;;;;;2098244;28;19931;-58
2021/12/11 05:05:25;;;;;;;;;;;;;;;;;;2092922;28;20008;-58
2021/12/11 05:06:38;;;;;;;;;;;;;;;;;;2097185;28;20023;-59
2021/12/11 05:07:44;;;;;;;;;;;;;;;;;;2097221;28;20023;-59
2021/12/11 05:10:11;;;;;;;;;;;;;;;;;;2097616;28;19938;-59
2021/12/11 05:11:14;;;;;;;;;;;;;;;;;;2098129;28;19924;-59
2021/12/11 05:12:19;;;;;;;;;;;;;;;;;;2097294;28;19950;-59
2021/12/11 05:13:20;;;;;;;;;;;;;;;;;;2103187;28;20361;-58
2021/12/11 05:14:21;;;;;;;;;;;;;;;;;;2106574;28;19935;-59
2021/12/11 05:15:22;;;;;;;;;;;;;;;;;;2101126;28;19924;-58
2021/12/11 05:16:23;;;;;;;;;;;;;;;;;;2098958;28;20270;-58
2021/12/11 05:17:24;;;;;;;;;;;;;;;;;;2098078;28;19928;-57
2021/12/11 05:18:26;;;;;;;;;;;;;;;;;;2097004;28;19929;-58
2021/12/11 05:19:27;;;;;;;;;;;;;;;;;;2098931;28;19925;-57
2021/12/11 05:20:28;;;;;;;;;;;;;;;;;;2098026;28;19944;-58
2021/12/11 05:21:29;;;;;;;;;;;;;;;;;;2097001;28;19931;-58
2021/12/11 05:22:29;;;;;;;;;;;;;;;;;;2098641;28;19924;-57
2021/12/11 05:23:30;;;;;;;;;;;;;;;;;;2098058;28;20352;-58
2021/12/11 05:24:31;;;;;;;;;;;;;;;;;;2097919;28;19924;-58
2021/12/11 05:25:32;;;;;;;;;;;;;;;;;;2098080;28;19932;-58
2021/12/11 05:26:33;;;;;;;;;;;;;;;;;;2098033;28;19947;-58
2021/12/11 05:27:34;;;;;;;;;;;;;;;;;;2097954;28;20277;-58
2021/12/11 05:28:35;;;;;;;;;;;;;;;;;;2098062;28;19978;-58
2021/12/11 05:29:35;;;;;;;;;;;;;;;;;;2097998;28;19932;-58
2021/12/11 05:30:36;;;;;;;;;;;;;;;;;;2098795;28;19969;-59
2021/12/11 05:31:37;;;;;;;;;;;;;;;;;;2097988;28;20057;-58
2021/12/11 05:32:38;;;;;;;;;;;;;;;;;;2097503;28;20395;-57
2021/12/11 05:33:39;;;;;;;;;;;;;;;;;;2098872;28;19935;-58
2021/12/11 05:34:40;;;;;;;;;;;;;;;;;;2098046;28;19924;-58
2021/12/11 05:35:41;;;;;;;;;;;;;;;;;;2097454;28;19928;-58
2021/12/11 05:36:41;;;;;;;;;;;;;;;;;;2098298;28;20012;-57
2021/12/11 05:37:43;;;;;;;;;;;;;;;;;;2097957;28;20514;-59
2021/12/11 05:38:47;;;;;;;;;;;;;;;;;;2097402;28;20278;-59
2021/12/11 05:39:48;;;;;;;;;;;;;;;;;;2098408;28;20034;-57
2021/12/11 05:40:49;;;;;;;;;;;;;;;;;;2097912;28;19925;-56
2021/12/11 05:41:50;;;;;;;;;;;;;;;;;;2097032;28;19925;-57
2021/12/11 05:42:51;;;;;;;;;;;;;;;;;;2104098;28;20368;-57
2021/12/11 05:43:51;;;;;;;;;;;;;;;;;;2106420;28;19924;-58
2021/12/11 05:44:52;;;;;;;;;;;;;;;;;;2099880;28;19971;-58
2021/12/11 05:45:53;;;;;;;;;;;;;;;;;;2098210;28;19924;-58
2021/12/11 05:46:54;;;;;;;;;;;;;;;;;;2097965;28;19924;-58
2021/12/11 05:47:55;;;;;;;;;;;;;;;;;;2097753;28;19947;-59
2021/12/11 05:48:56;;;;;;;;;;;;;;;;;;2097801;28;19932;-59
2021/12/11 05:49:57;;;;;;;;;;;;;;;;;;2098029;28;20327;-58
2021/12/11 05:51:00;;;;;;;;;;;;;;;;;;2097696;28;20020;-59
2021/12/11 05:52:01;;;;;;;;;;;;;;;;;;2097810;28;19930;-59
2021/12/11 05:53:02;;;;;;;;;;;;;;;;;;2098078;28;19931;-59
2021/12/11 05:54:03;;;;;;;;;;;;;;;;;;2097141;28;19947;-58
2021/12/11 05:55:05;;;;;;;;;;;;;;;;;;2106395;28;20377;-59
2021/12/11 05:56:08;;;;;;;;;;;;;;;;;;2106172;28;20433;-59
2021/12/11 05:57:09;;;;;;;;;;;;;;;;;;2098144;28;20368;-58
2021/12/11 05:58:11;;;;;;;;;;;;;;;;;;2097906;28;20010;-59
2021/12/11 05:59:12;;;;;;;;;;;;;;;;;;2097351;28;20332;-59
2021/12/11 06:00:13;;;;;;;;;;;;;;;;;;2097827;28;19973;-59
2021/12/11 06:01:30;;;;;;;;;;;;;;;;;;2097996;28;19924;-59
2021/12/11 06:02:31;;;;;;;;;;;;;;;;;;2096668;28;20010;-59
2021/12/11 06:03:37;;;;;;;;;;;;;;;;;;2098785;28;19924;-59
2021/12/11 06:04:38;;;;;;;;;;;;;;;;;;2097854;28;19959;-59
2021/12/11 06:05:38;;;;;;;;;;;;;;;;;;2097465;28;19977;-59
2021/12/11 06:06:39;;;;;;;;;;;;;;;;;;2098022;28;19924;-59
2021/12/11 06:07:43;;;;;;;;;;;;;;;;;;2097901;28;19925;-58
2021/12/11 06:08:44;;;;;;;;;;;;;;;;;;2099046;28;19939;-59
2021/12/11 06:09:45;;;;;;;;;;;;;;;;;;2097669;28;20320;-59
2021/12/11 06:10:46;;;;;;;;;;;;;;;;;;2097836;28;19924;-59
2021/12/11 06:11:47;;;;;;;;;;;;;;;;;;2098581;28;19925;-59
2021/12/11 06:12:48;;;;;;;;;;;;;;;;;;2097810;28;20464;-59
2021/12/11 06:13:49;;;;;;;;;;;;;;;;;;2097712;28;19925;-59
2021/12/11 06:14:50;;;;;;;;;;;;;;;;;;2097677;28;19924;-59
2021/12/11 06:15:51;;;;;;;;;;;;;;;;;;2097892;28;19928;-59
2021/12/11 06:16:52;;;;;;;;;;;;;;;;;;2097259;28;19924;-59
2021/12/11 06:17:53;;;;;;;;;;;;;;;;;;2098053;28;19924;-59
2021/12/11 06:18:54;;;;;;;;;;;;;;;;;;2097795;28;19932;-59
2021/12/11 06:19:55;;;;;;;;;;;;;;;;;;2097219;28;19928;-59
2021/12/11 06:20:56;;;;;;;;;;;;;;;;;;2098148;28;19924;-59
2021/12/11 06:21:57;;;;;;;;;;;;;;;;;;2097734;28;20386;-59
2021/12/11 06:22:57;;;;;;;;;;;;;;;;;;2097095;28;20403;-59
2021/12/11 06:23:58;;;;;;;;;;;;;;;;;;2099011;28;19932;-59
2021/12/11 06:24:59;;;;;;;;;;;;;;;;;;2106168;28;20278;-59
2021/12/11 06:26:00;;;;;;;;;;;;;;;;;;2103475;28;19931;-59
2021/12/11 06:27:01;;;;;;;;;;;;;;;;;;2100486;28;19924;-59
2021/12/11 06:28:02;;;;;;;;;;;;;;;;;;2106249;28;20019;-59
2021/12/11 06:29:03;;;;;;;;;;;;;;;;;;2102771;28;20093;-59
2021/12/11 06:30:03;;;;;;;;;;;;;;;;;;2102252;28;20359;-59
2021/12/11 06:31:04;;;;;;;;;;;;;;;;;;2106213;28;20304;-59
2021/12/11 06:32:05;;;;;;;;;;;;;;;;;;2101695;28;19924;-59
2021/12/11 06:33:06;;;;;;;;;;;;;;;;;;2098407;28;20390;-59
2021/12/11 06:34:07;;;;;;;;;;;;;;;;;;2097553;28;19925;-59
2021/12/11 06:35:07;;;;;;;;;;;;;;;;;;2097840;28;19977;-60
2021/12/11 06:36:10;;;;;;;;;;;;;;;;;;2098364;28;19928;-59
2021/12/11 06:37:11;;;;;;;;;;;;;;;;;;2097621;28;20269;-59
2021/12/11 06:38:12;;;;;;;;;;;;;;;;;;2096520;28;19954;-59
2021/12/11 06:39:12;;;;;;;;;;;;;;;;;;2096396;28;19928;-60
2021/12/11 06:40:13;;;;;;;;;;;;;;;;;;2097753;28;19924;-59
2021/12/11 06:41:14;;;;;;;;;;;;;;;;;;2097169;28;20351;-59
2021/12/11 06:42:15;;;;;;;;;;;;;;;;;;2097777;28;19929;-59
2021/12/11 06:43:16;;;;;;;;;;;;;;;;;;2097626;28;19925;-59
2021/12/11 06:44:17;;;;;;;;;;;;;;;;;;2096445;28;20293;-59
2021/12/11 06:45:17;;;;;;;;;;;;;;;;;;2103491;28;19924;-59
2021/12/11 06:46:18;;;;;;;;;;;;;;;;;;2106145;28;19969;-59
2021/12/11 06:47:19;;;;;;;;;;;;;;;;;;2098128;28;19924;-59
2021/12/11 06:48:20;;;;;;;;;;;;;;;;;;2105704;28;20444;-60
2021/12/11 06:49:21;;;;;;;;;;;;;;;;;;2106079;28;20332;-59
2021/12/11 06:50:22;;;;;;;;;;;;;;;;;;2098742;28;20348;-59
2021/12/11 06:51:23;;;;;;;;;;;;;;;;;;2097568;28;19925;-59
2021/12/11 06:52:23;;;;;;;;;;;;;;;;;;2097475;28;19925;-59
2021/12/11 06:53:24;;;;;;;;;;;;;;;;;;2097136;28;19977;-59
2021/12/11 06:54:25;;;;;;;;;;;;;;;;;;2105983;28;19934;-60
2021/12/11 06:55:26;;;;;;;;;;;;;;;;;;2105580;28;19931;-60
2021/12/11 06:56:27;;;;;;;;;;;;;;;;;;2096246;28;19924;-59
2021/12/11 06:57:28;;;;;;;;;;;;;;;;;;2097652;28;19928;-59
2021/12/11 06:58:30;;;;;;;;;;;;;;;;;;2097166;28;20376;-59
2021/12/11 06:59:30;;;;;;;;;;;;;;;;;;2100247;28;20181;-59
2021/12/11 07:00:31;;;;;;;;;;;;;;;;;;2105935;28;19932;-60
2021/12/11 07:01:32;;;;;;;;;;;;;;;;;;2103856;28;19924;-60
2021/12/11 07:02:33;;;;;;;;;;;;;;;;;;2098660;28;20013;-60
2021/12/11 07:03:34;;;;;;;;;;;;;;;;;;2098931;28;19925;-60
2021/12/11 07:04:35;;;;;;;;;;;;;;;;;;2098334;28;19928;-60